sensor_id;sensor_type;location;lat;lon;timestamp;P1;durP1;ratioP1;P2;durP2;ratioP2
12141;SDS011;6134;59.284;18.022;2022-10-16T00:00:58;12.73;;;10.63;;
12141;SDS011;6134;59.284;18.022;2022-10-16T00:03:32;11.93;;;9.98;;
12141;SDS011;6134;59.284;18.022;2022-10-16T00:06:01;11.05;;;9.13;;
12141;SDS011;6134;59.284;18.022;2022-10-16T00:08:30;12.35;;;10.20;;
12141;SDS011;6134;59.284;18.022;2022-10-16T00:11:01;10.15;;;8.73;;
12141;SDS011;6134;59.284;18.022;2022-10-16T00:13:30;12.63;;;10.23;;
12141;SDS011;6134;59.284;18.022;2022-10-16T00:16:01;18.25;;;10.25;;
12141;SDS011;6134;59.284;18.022;2022-10-16T00:18:30;11.88;;;9.15;;
12141;SDS011;6134;59.284;18.022;2022-10-16T00:21:01;11.63;;;9.45;;
12141;SDS011;6134;59.284;18.022;2022-10-16T00:23:49;11.38;;;9.43;;
12141;SDS011;6134;59.284;18.022;2022-10-16T00:26:20;13.75;;;9.35;;
12141;SDS011;6134;59.284;18.022;2022-10-16T00:28:49;10.80;;;8.93;;
12141;SDS011;6134;59.284;18.022;2022-10-16T00:31:19;12.57;;;9.65;;
12141;SDS011;6134;59.284;18.022;2022-10-16T00:33:47;12.38;;;9.32;;
12141;SDS011;6134;59.284;18.022;2022-10-16T00:36:16;11.30;;;9.55;;
12141;SDS011;6134;59.284;18.022;2022-10-16T00:38:46;10.85;;;9.48;;
12141;SDS011;6134;59.284;18.022;2022-10-16T00:41:16;12.18;;;9.88;;
12141;SDS011;6134;59.284;18.022;2022-10-16T00:43:47;12.60;;;9.98;;
12141;SDS011;6134;59.284;18.022;2022-10-16T00:46:17;12.65;;;9.57;;
12141;SDS011;6134;59.284;18.022;2022-10-16T00:48:48;13.55;;;10.05;;
12141;SDS011;6134;59.284;18.022;2022-10-16T00:51:19;13.15;;;9.60;;
12141;SDS011;6134;59.284;18.022;2022-10-16T00:53:49;15.07;;;10.32;;
12141;SDS011;6134;59.284;18.022;2022-10-16T00:56:18;13.13;;;10.30;;
12141;SDS011;6134;59.284;18.022;2022-10-16T00:58:48;14.20;;;9.80;;
12141;SDS011;6134;59.284;18.022;2022-10-16T01:01:16;14.77;;;10.73;;
12141;SDS011;6134;59.284;18.022;2022-10-16T01:03:45;14.13;;;10.30;;
12141;SDS011;6134;59.284;18.022;2022-10-16T01:06:24;13.98;;;9.60;;
12141;SDS011;6134;59.284;18.022;2022-10-16T01:08:57;12.98;;;10.93;;
12141;SDS011;6134;59.284;18.022;2022-10-16T01:11:27;12.77;;;10.32;;
12141;SDS011;6134;59.284;18.022;2022-10-16T01:14:02;12.57;;;10.38;;
12141;SDS011;6134;59.284;18.022;2022-10-16T01:16:34;12.07;;;10.15;;
12141;SDS011;6134;59.284;18.022;2022-10-16T01:19:05;12.80;;;9.98;;
12141;SDS011;6134;59.284;18.022;2022-10-16T01:21:38;12.65;;;10.38;;
12141;SDS011;6134;59.284;18.022;2022-10-16T01:24:08;15.05;;;10.95;;
12141;SDS011;6134;59.284;18.022;2022-10-16T01:26:44;13.30;;;9.82;;
12141;SDS011;6134;59.284;18.022;2022-10-16T01:29:16;10.02;;;8.73;;
12141;SDS011;6134;59.284;18.022;2022-10-16T01:31:47;10.73;;;9.30;;
12141;SDS011;6134;59.284;18.022;2022-10-16T01:34:18;10.55;;;9.23;;
12141;SDS011;6134;59.284;18.022;2022-10-16T01:36:49;9.90;;;8.73;;
12141;SDS011;6134;59.284;18.022;2022-10-16T01:39:22;12.07;;;9.55;;
12141;SDS011;6134;59.284;18.022;2022-10-16T01:41:52;11.52;;;9.55;;
12141;SDS011;6134;59.284;18.022;2022-10-16T01:44:24;11.90;;;9.18;;
12141;SDS011;6134;59.284;18.022;2022-10-16T01:46:54;11.10;;;8.40;;
12141;SDS011;6134;59.284;18.022;2022-10-16T01:49:24;11.32;;;9.55;;
12141;SDS011;6134;59.284;18.022;2022-10-16T01:51:55;11.63;;;8.70;;
12141;SDS011;6134;59.284;18.022;2022-10-16T01:54:30;11.63;;;8.23;;
12141;SDS011;6134;59.284;18.022;2022-10-16T01:56:59;10.57;;;8.95;;
12141;SDS011;6134;59.284;18.022;2022-10-16T01:59:31;10.70;;;9.15;;
12141;SDS011;6134;59.284;18.022;2022-10-16T02:02:00;9.15;;;8.18;;
12141;SDS011;6134;59.284;18.022;2022-10-16T02:04:32;10.23;;;9.20;;
12141;SDS011;6134;59.284;18.022;2022-10-16T02:07:01;9.80;;;8.35;;
12141;SDS011;6134;59.284;18.022;2022-10-16T02:09:30;10.73;;;9.00;;
12141;SDS011;6134;59.284;18.022;2022-10-16T02:11:59;11.55;;;9.10;;
12141;SDS011;6134;59.284;18.022;2022-10-16T02:14:31;11.32;;;9.38;;
12141;SDS011;6134;59.284;18.022;2022-10-16T02:16:59;9.40;;;8.38;;
12141;SDS011;6134;59.284;18.022;2022-10-16T02:19:28;10.68;;;9.20;;
12141;SDS011;6134;59.284;18.022;2022-10-16T02:21:58;11.93;;;9.02;;
12141;SDS011;6134;59.284;18.022;2022-10-16T02:24:29;10.70;;;8.73;;
12141;SDS011;6134;59.284;18.022;2022-10-16T02:27:00;10.60;;;8.88;;
12141;SDS011;6134;59.284;18.022;2022-10-16T02:29:33;13.13;;;8.70;;
12141;SDS011;6134;59.284;18.022;2022-10-16T02:32:04;12.15;;;8.57;;
12141;SDS011;6134;59.284;18.022;2022-10-16T02:34:34;9.98;;;8.35;;
12141;SDS011;6134;59.284;18.022;2022-10-16T02:37:04;12.40;;;8.75;;
12141;SDS011;6134;59.284;18.022;2022-10-16T02:39:34;12.60;;;8.80;;
12141;SDS011;6134;59.284;18.022;2022-10-16T02:42:02;10.10;;;8.07;;
12141;SDS011;6134;59.284;18.022;2022-10-16T02:44:32;9.48;;;8.23;;
12141;SDS011;6134;59.284;18.022;2022-10-16T02:47:01;10.15;;;8.80;;
12141;SDS011;6134;59.284;18.022;2022-10-16T02:49:30;11.10;;;7.75;;
12141;SDS011;6134;59.284;18.022;2022-10-16T02:51:58;12.30;;;8.80;;
12141;SDS011;6134;59.284;18.022;2022-10-16T02:54:27;10.50;;;7.82;;
12141;SDS011;6134;59.284;18.022;2022-10-16T02:56:55;9.65;;;8.05;;
12141;SDS011;6134;59.284;18.022;2022-10-16T02:59:24;10.57;;;7.47;;
12141;SDS011;6134;59.284;18.022;2022-10-16T03:01:54;11.25;;;8.25;;
12141;SDS011;6134;59.284;18.022;2022-10-16T03:04:23;10.63;;;7.88;;
12141;SDS011;6134;59.284;18.022;2022-10-16T03:06:51;9.18;;;7.18;;
12141;SDS011;6134;59.284;18.022;2022-10-16T03:09:20;8.38;;;7.57;;
12141;SDS011;6134;59.284;18.022;2022-10-16T03:11:49;10.13;;;7.07;;
12141;SDS011;6134;59.284;18.022;2022-10-16T03:14:18;9.57;;;7.05;;
12141;SDS011;6134;59.284;18.022;2022-10-16T03:16:47;9.30;;;6.18;;
12141;SDS011;6134;59.284;18.022;2022-10-16T03:19:17;9.65;;;6.85;;
12141;SDS011;6134;59.284;18.022;2022-10-16T03:21:46;8.05;;;7.03;;
12141;SDS011;6134;59.284;18.022;2022-10-16T03:24:14;7.57;;;6.72;;
12141;SDS011;6134;59.284;18.022;2022-10-16T03:26:43;9.38;;;7.43;;
12141;SDS011;6134;59.284;18.022;2022-10-16T03:29:12;10.35;;;7.32;;
12141;SDS011;6134;59.284;18.022;2022-10-16T03:31:40;9.63;;;6.45;;
12141;SDS011;6134;59.284;18.022;2022-10-16T03:34:09;10.15;;;6.90;;
12141;SDS011;6134;59.284;18.022;2022-10-16T03:36:39;8.20;;;6.72;;
12141;SDS011;6134;59.284;18.022;2022-10-16T03:39:08;7.93;;;7.13;;
12141;SDS011;6134;59.284;18.022;2022-10-16T03:41:36;8.25;;;6.90;;
12141;SDS011;6134;59.284;18.022;2022-10-16T03:44:05;12.40;;;7.22;;
12141;SDS011;6134;59.284;18.022;2022-10-16T03:46:33;8.48;;;6.72;;
12141;SDS011;6134;59.284;18.022;2022-10-16T03:49:02;7.82;;;6.55;;
12141;SDS011;6134;59.284;18.022;2022-10-16T03:51:35;8.35;;;6.57;;
12141;SDS011;6134;59.284;18.022;2022-10-16T03:54:05;7.38;;;6.40;;
12141;SDS011;6134;59.284;18.022;2022-10-16T03:56:34;7.10;;;6.22;;
12141;SDS011;6134;59.284;18.022;2022-10-16T03:59:02;10.48;;;6.47;;
12141;SDS011;6134;59.284;18.022;2022-10-16T04:01:31;6.38;;;5.78;;
12141;SDS011;6134;59.284;18.022;2022-10-16T04:03:59;7.38;;;6.13;;
12141;SDS011;6134;59.284;18.022;2022-10-16T04:06:28;7.07;;;5.38;;
12141;SDS011;6134;59.284;18.022;2022-10-16T04:08:56;6.78;;;5.80;;
12141;SDS011;6134;59.284;18.022;2022-10-16T04:11:27;8.95;;;5.85;;
12141;SDS011;6134;59.284;18.022;2022-10-16T04:13:55;6.70;;;5.82;;
12141;SDS011;6134;59.284;18.022;2022-10-16T04:16:24;7.13;;;5.70;;
12141;SDS011;6134;59.284;18.022;2022-10-16T04:18:53;7.30;;;5.70;;
12141;SDS011;6134;59.284;18.022;2022-10-16T04:21:21;7.75;;;6.10;;
12141;SDS011;6134;59.284;18.022;2022-10-16T04:23:50;7.15;;;6.30;;
12141;SDS011;6134;59.284;18.022;2022-10-16T04:26:19;8.27;;;6.10;;
12141;SDS011;6134;59.284;18.022;2022-10-16T04:28:49;8.98;;;5.90;;
12141;SDS011;6134;59.284;18.022;2022-10-16T04:31:17;8.35;;;6.45;;
12141;SDS011;6134;59.284;18.022;2022-10-16T04:33:46;7.32;;;5.75;;
12141;SDS011;6134;59.284;18.022;2022-10-16T04:36:14;10.10;;;5.95;;
12141;SDS011;6134;59.284;18.022;2022-10-16T04:38:43;7.00;;;5.53;;
12141;SDS011;6134;59.284;18.022;2022-10-16T04:41:12;6.55;;;5.60;;
12141;SDS011;6134;59.284;18.022;2022-10-16T04:43:40;6.40;;;5.45;;
12141;SDS011;6134;59.284;18.022;2022-10-16T04:46:10;6.28;;;5.43;;
12141;SDS011;6134;59.284;18.022;2022-10-16T04:48:39;7.57;;;5.43;;
12141;SDS011;6134;59.284;18.022;2022-10-16T04:51:07;5.32;;;4.82;;
12141;SDS011;6134;59.284;18.022;2022-10-16T04:53:37;7.95;;;5.15;;
12141;SDS011;6134;59.284;18.022;2022-10-16T04:56:05;5.65;;;4.75;;
12141;SDS011;6134;59.284;18.022;2022-10-16T04:58:34;5.30;;;4.80;;
12141;SDS011;6134;59.284;18.022;2022-10-16T05:01:02;6.15;;;4.95;;
12141;SDS011;6134;59.284;18.022;2022-10-16T05:03:32;7.55;;;4.80;;
12141;SDS011;6134;59.284;18.022;2022-10-16T05:06:01;8.13;;;5.22;;
12141;SDS011;6134;59.284;18.022;2022-10-16T05:08:30;6.22;;;5.43;;
12141;SDS011;6134;59.284;18.022;2022-10-16T05:10:59;6.15;;;5.18;;
12141;SDS011;6134;59.284;18.022;2022-10-16T05:13:28;6.10;;;5.18;;
12141;SDS011;6134;59.284;18.022;2022-10-16T05:15:57;6.07;;;5.30;;
12141;SDS011;6134;59.284;18.022;2022-10-16T05:18:25;6.03;;;5.43;;
12141;SDS011;6134;59.284;18.022;2022-10-16T05:20:55;7.47;;;5.75;;
12141;SDS011;6134;59.284;18.022;2022-10-16T05:23:24;7.28;;;5.90;;
12141;SDS011;6134;59.284;18.022;2022-10-16T05:25:53;6.20;;;5.60;;
12141;SDS011;6134;59.284;18.022;2022-10-16T05:28:24;7.63;;;5.70;;
12141;SDS011;6134;59.284;18.022;2022-10-16T05:30:53;8.50;;;5.93;;
12141;SDS011;6134;59.284;18.022;2022-10-16T05:33:22;8.30;;;6.03;;
12141;SDS011;6134;59.284;18.022;2022-10-16T05:35:51;7.40;;;6.18;;
12141;SDS011;6134;59.284;18.022;2022-10-16T05:38:21;10.27;;;6.43;;
12141;SDS011;6134;59.284;18.022;2022-10-16T05:40:50;8.10;;;6.50;;
12141;SDS011;6134;59.284;18.022;2022-10-16T05:43:19;8.80;;;6.50;;
12141;SDS011;6134;59.284;18.022;2022-10-16T05:45:53;8.63;;;6.60;;
12141;SDS011;6134;59.284;18.022;2022-10-16T05:48:22;9.27;;;7.03;;
12141;SDS011;6134;59.284;18.022;2022-10-16T05:50:56;9.27;;;7.05;;
12141;SDS011;6134;59.284;18.022;2022-10-16T05:53:26;7.90;;;7.05;;
12141;SDS011;6134;59.284;18.022;2022-10-16T05:55:55;8.07;;;6.93;;
12141;SDS011;6134;59.284;18.022;2022-10-16T05:58:24;9.48;;;7.38;;
12141;SDS011;6134;59.284;18.022;2022-10-16T06:00:53;8.27;;;7.18;;
12141;SDS011;6134;59.284;18.022;2022-10-16T06:03:23;9.80;;;7.60;;
12141;SDS011;6134;59.284;18.022;2022-10-16T06:05:51;11.40;;;8.20;;
12141;SDS011;6134;59.284;18.022;2022-10-16T06:08:21;11.40;;;8.13;;
12141;SDS011;6134;59.284;18.022;2022-10-16T06:11:01;11.02;;;9.23;;
12141;SDS011;6134;59.284;18.022;2022-10-16T06:13:29;12.13;;;9.20;;
12141;SDS011;6134;59.284;18.022;2022-10-16T06:15:58;12.73;;;8.65;;
12141;SDS011;6134;59.284;18.022;2022-10-16T06:18:27;11.75;;;9.80;;
12141;SDS011;6134;59.284;18.022;2022-10-16T06:20:56;13.68;;;10.52;;
12141;SDS011;6134;59.284;18.022;2022-10-16T06:23:25;12.75;;;10.13;;
12141;SDS011;6134;59.284;18.022;2022-10-16T06:26:05;11.77;;;9.98;;
12141;SDS011;6134;59.284;18.022;2022-10-16T06:28:33;11.93;;;9.77;;
12141;SDS011;6134;59.284;18.022;2022-10-16T06:31:02;13.30;;;10.15;;
12141;SDS011;6134;59.284;18.022;2022-10-16T06:33:34;15.98;;;10.68;;
12141;SDS011;6134;59.284;18.022;2022-10-16T06:36:03;11.60;;;10.38;;
12141;SDS011;6134;59.284;18.022;2022-10-16T06:38:32;13.13;;;10.70;;
12141;SDS011;6134;59.284;18.022;2022-10-16T06:41:01;14.55;;;10.57;;
12141;SDS011;6134;59.284;18.022;2022-10-16T06:43:31;12.25;;;10.65;;
12141;SDS011;6134;59.284;18.022;2022-10-16T06:46:02;14.13;;;10.35;;
12141;SDS011;6134;59.284;18.022;2022-10-16T06:48:31;14.25;;;11.10;;
12141;SDS011;6134;59.284;18.022;2022-10-16T06:51:00;15.75;;;10.52;;
12141;SDS011;6134;59.284;18.022;2022-10-16T06:53:31;13.55;;;10.65;;
12141;SDS011;6134;59.284;18.022;2022-10-16T06:56:09;12.57;;;10.20;;
12141;SDS011;6134;59.284;18.022;2022-10-16T06:58:40;14.50;;;11.15;;
12141;SDS011;6134;59.284;18.022;2022-10-16T07:01:09;12.13;;;10.77;;
12141;SDS011;6134;59.284;18.022;2022-10-16T07:03:38;16.10;;;11.20;;
12141;SDS011;6134;59.284;18.022;2022-10-16T07:06:07;16.15;;;10.68;;
12141;SDS011;6134;59.284;18.022;2022-10-16T07:08:37;14.48;;;10.88;;
12141;SDS011;6134;59.284;18.022;2022-10-16T07:11:07;11.70;;;10.02;;
12141;SDS011;6134;59.284;18.022;2022-10-16T07:13:35;14.02;;;10.63;;
12141;SDS011;6134;59.284;18.022;2022-10-16T07:16:06;12.00;;;9.75;;
12141;SDS011;6134;59.284;18.022;2022-10-16T07:18:35;12.90;;;9.45;;
12141;SDS011;6134;59.284;18.022;2022-10-16T07:21:05;10.52;;;8.95;;
12141;SDS011;6134;59.284;18.022;2022-10-16T07:23:34;10.82;;;8.98;;
12141;SDS011;6134;59.284;18.022;2022-10-16T07:26:03;9.38;;;8.40;;
12141;SDS011;6134;59.284;18.022;2022-10-16T07:28:32;10.60;;;8.48;;
12141;SDS011;6134;59.284;18.022;2022-10-16T07:31:01;10.05;;;8.13;;
12141;SDS011;6134;59.284;18.022;2022-10-16T07:33:32;8.68;;;6.97;;
12141;SDS011;6134;59.284;18.022;2022-10-16T07:36:01;8.23;;;6.82;;
12141;SDS011;6134;59.284;18.022;2022-10-16T07:38:30;8.00;;;7.00;;
12141;SDS011;6134;59.284;18.022;2022-10-16T07:40:59;7.72;;;6.32;;
12141;SDS011;6134;59.284;18.022;2022-10-16T07:43:28;7.53;;;6.50;;
12141;SDS011;6134;59.284;18.022;2022-10-16T07:45:56;7.18;;;6.47;;
12141;SDS011;6134;59.284;18.022;2022-10-16T07:48:31;7.00;;;5.50;;
12141;SDS011;6134;59.284;18.022;2022-10-16T07:51:02;8.10;;;6.05;;
12141;SDS011;6134;59.284;18.022;2022-10-16T07:53:31;6.68;;;5.60;;
12141;SDS011;6134;59.284;18.022;2022-10-16T07:56:00;6.57;;;5.97;;
12141;SDS011;6134;59.284;18.022;2022-10-16T07:58:29;6.20;;;5.60;;
12141;SDS011;6134;59.284;18.022;2022-10-16T08:00:58;6.30;;;4.90;;
12141;SDS011;6134;59.284;18.022;2022-10-16T08:03:26;7.10;;;4.70;;
12141;SDS011;6134;59.284;18.022;2022-10-16T08:05:56;6.90;;;5.22;;
12141;SDS011;6134;59.284;18.022;2022-10-16T08:08:26;5.70;;;5.10;;
12141;SDS011;6134;59.284;18.022;2022-10-16T08:10:55;5.25;;;4.78;;
12141;SDS011;6134;59.284;18.022;2022-10-16T08:13:25;5.18;;;4.55;;
12141;SDS011;6134;59.284;18.022;2022-10-16T08:15:53;6.78;;;4.80;;
12141;SDS011;6134;59.284;18.022;2022-10-16T08:18:22;6.03;;;4.85;;
12141;SDS011;6134;59.284;18.022;2022-10-16T08:20:54;5.72;;;4.90;;
12141;SDS011;6134;59.284;18.022;2022-10-16T08:23:24;6.70;;;6.00;;
12141;SDS011;6134;59.284;18.022;2022-10-16T08:25:54;5.40;;;4.90;;
12141;SDS011;6134;59.284;18.022;2022-10-16T08:28:23;5.47;;;4.75;;
12141;SDS011;6134;59.284;18.022;2022-10-16T08:30:52;7.13;;;5.35;;
12141;SDS011;6134;59.284;18.022;2022-10-16T08:33:22;5.22;;;4.68;;
12141;SDS011;6134;59.284;18.022;2022-10-16T08:35:51;6.50;;;4.80;;
12141;SDS011;6134;59.284;18.022;2022-10-16T08:38:20;4.53;;;4.13;;
12141;SDS011;6134;59.284;18.022;2022-10-16T08:40:49;4.47;;;4.07;;
12141;SDS011;6134;59.284;18.022;2022-10-16T08:43:24;6.43;;;5.22;;
12141;SDS011;6134;59.284;18.022;2022-10-16T08:46:00;5.53;;;4.25;;
12141;SDS011;6134;59.284;18.022;2022-10-16T08:48:34;7.75;;;4.97;;
12141;SDS011;6134;59.284;18.022;2022-10-16T08:51:03;6.38;;;5.07;;
12141;SDS011;6134;59.284;18.022;2022-10-16T08:53:33;6.25;;;5.38;;
12141;SDS011;6134;59.284;18.022;2022-10-16T08:56:06;5.32;;;4.82;;
12141;SDS011;6134;59.284;18.022;2022-10-16T08:58:36;5.20;;;4.70;;
12141;SDS011;6134;59.284;18.022;2022-10-16T09:01:11;5.63;;;4.90;;
12141;SDS011;6134;59.284;18.022;2022-10-16T09:03:45;6.10;;;4.45;;
12141;SDS011;6134;59.284;18.022;2022-10-16T09:06:26;4.63;;;4.10;;
12141;SDS011;6134;59.284;18.022;2022-10-16T09:09:02;5.05;;;4.43;;
12141;SDS011;6134;59.284;18.022;2022-10-16T09:11:37;4.70;;;4.30;;
12141;SDS011;6134;59.284;18.022;2022-10-16T09:14:13;5.95;;;3.97;;
12141;SDS011;6134;59.284;18.022;2022-10-16T09:16:46;5.78;;;4.68;;
12141;SDS011;6134;59.284;18.022;2022-10-16T09:19:18;4.25;;;3.65;;
12141;SDS011;6134;59.284;18.022;2022-10-16T09:21:49;5.22;;;3.58;;
12141;SDS011;6134;59.284;18.022;2022-10-16T09:24:20;6.05;;;3.70;;
12141;SDS011;6134;59.284;18.022;2022-10-16T09:26:53;6.38;;;3.78;;
12141;SDS011;6134;59.284;18.022;2022-10-16T09:29:24;4.95;;;3.15;;
12141;SDS011;6134;59.284;18.022;2022-10-16T09:31:53;4.43;;;3.38;;
12141;SDS011;6134;59.284;18.022;2022-10-16T09:34:24;4.93;;;3.45;;
12141;SDS011;6134;59.284;18.022;2022-10-16T09:36:57;4.43;;;3.13;;
12141;SDS011;6134;59.284;18.022;2022-10-16T09:39:26;5.97;;;3.33;;
12141;SDS011;6134;59.284;18.022;2022-10-16T09:41:54;3.92;;;3.53;;
12141;SDS011;6134;59.284;18.022;2022-10-16T09:44:26;4.88;;;3.30;;
12141;SDS011;6134;59.284;18.022;2022-10-16T09:47:02;5.85;;;3.35;;
12141;SDS011;6134;59.284;18.022;2022-10-16T09:49:31;6.38;;;3.33;;
12141;SDS011;6134;59.284;18.022;2022-10-16T09:52:03;4.25;;;3.28;;
12141;SDS011;6134;59.284;18.022;2022-10-16T09:54:32;6.72;;;3.78;;
12141;SDS011;6134;59.284;18.022;2022-10-16T09:57:04;7.88;;;3.25;;
12141;SDS011;6134;59.284;18.022;2022-10-16T09:59:34;4.57;;;3.28;;
12141;SDS011;6134;59.284;18.022;2022-10-16T10:02:14;4.07;;;2.88;;
12141;SDS011;6134;59.284;18.022;2022-10-16T10:04:45;3.22;;;2.92;;
12141;SDS011;6134;59.284;18.022;2022-10-16T10:07:21;4.53;;;3.05;;
12141;SDS011;6134;59.284;18.022;2022-10-16T10:09:52;5.45;;;3.22;;
12141;SDS011;6134;59.284;18.022;2022-10-16T10:12:21;4.35;;;2.95;;
12141;SDS011;6134;59.284;18.022;2022-10-16T10:14:54;3.78;;;3.20;;
12141;SDS011;6134;59.284;18.022;2022-10-16T10:17:24;5.15;;;2.80;;
12141;SDS011;6134;59.284;18.022;2022-10-16T10:19:54;5.35;;;3.00;;
12141;SDS011;6134;59.284;18.022;2022-10-16T10:22:28;4.88;;;2.63;;
12141;SDS011;6134;59.284;18.022;2022-10-16T10:24:59;4.15;;;2.50;;
12141;SDS011;6134;59.284;18.022;2022-10-16T10:27:32;3.70;;;2.78;;
12141;SDS011;6134;59.284;18.022;2022-10-16T10:30:06;3.65;;;2.90;;
12141;SDS011;6134;59.284;18.022;2022-10-16T10:32:39;5.47;;;3.00;;
12141;SDS011;6134;59.284;18.022;2022-10-16T10:35:13;4.38;;;2.50;;
12141;SDS011;6134;59.284;18.022;2022-10-16T10:37:47;3.85;;;2.50;;
12141;SDS011;6134;59.284;18.022;2022-10-16T10:40:23;4.95;;;2.42;;
12141;SDS011;6134;59.284;18.022;2022-10-16T10:42:57;5.90;;;2.67;;
12141;SDS011;6134;59.284;18.022;2022-10-16T10:45:32;5.22;;;2.50;;
12141;SDS011;6134;59.284;18.022;2022-10-16T10:48:06;4.68;;;3.05;;
12141;SDS011;6134;59.284;18.022;2022-10-16T10:50:39;3.90;;;2.67;;
12141;SDS011;6134;59.284;18.022;2022-10-16T10:53:14;4.70;;;2.63;;
12141;SDS011;6134;59.284;18.022;2022-10-16T10:55:48;5.60;;;3.25;;
12141;SDS011;6134;59.284;18.022;2022-10-16T11:01:18;2.72;;;2.05;;
12141;SDS011;6134;59.284;18.022;2022-10-16T11:06:39;3.00;;;2.35;;
12141;SDS011;6134;59.284;18.022;2022-10-16T11:09:15;3.97;;;2.00;;
12141;SDS011;6134;59.284;18.022;2022-10-16T11:11:46;5.32;;;2.53;;
12141;SDS011;6134;59.284;18.022;2022-10-16T11:14:17;4.35;;;2.30;;
12141;SDS011;6134;59.284;18.022;2022-10-16T11:16:50;6.78;;;2.38;;
12141;SDS011;6134;59.284;18.022;2022-10-16T11:19:22;4.72;;;2.25;;
12141;SDS011;6134;59.284;18.022;2022-10-16T11:21:54;2.80;;;2.22;;
12141;SDS011;6134;59.284;18.022;2022-10-16T11:24:27;3.08;;;2.42;;
12141;SDS011;6134;59.284;18.022;2022-10-16T11:27:01;5.28;;;2.72;;
12141;SDS011;6134;59.284;18.022;2022-10-16T11:29:32;4.53;;;2.47;;
12141;SDS011;6134;59.284;18.022;2022-10-16T11:32:06;4.90;;;2.50;;
12141;SDS011;6134;59.284;18.022;2022-10-16T11:34:40;4.20;;;2.35;;
12141;SDS011;6134;59.284;18.022;2022-10-16T11:37:12;4.47;;;2.30;;
12141;SDS011;6134;59.284;18.022;2022-10-16T11:39:42;2.45;;;2.20;;
12141;SDS011;6134;59.284;18.022;2022-10-16T11:42:13;5.63;;;2.33;;
12141;SDS011;6134;59.284;18.022;2022-10-16T11:44:48;5.45;;;2.60;;
12141;SDS011;6134;59.284;18.022;2022-10-16T11:47:33;4.53;;;2.20;;
12141;SDS011;6134;59.284;18.022;2022-10-16T11:50:23;4.00;;;2.28;;
12141;SDS011;6134;59.284;18.022;2022-10-16T11:52:55;6.22;;;2.60;;
12141;SDS011;6134;59.284;18.022;2022-10-16T11:55:26;3.47;;;2.17;;
12141;SDS011;6134;59.284;18.022;2022-10-16T11:57:58;3.65;;;3.05;;
12141;SDS011;6134;59.284;18.022;2022-10-16T12:00:30;5.53;;;2.72;;
12141;SDS011;6134;59.284;18.022;2022-10-16T12:03:03;3.10;;;2.40;;
12141;SDS011;6134;59.284;18.022;2022-10-16T12:05:35;7.00;;;3.10;;
12141;SDS011;6134;59.284;18.022;2022-10-16T12:08:10;4.30;;;2.55;;
12141;SDS011;6134;59.284;18.022;2022-10-16T12:10:40;5.95;;;2.60;;
12141;SDS011;6134;59.284;18.022;2022-10-16T12:16:03;3.88;;;2.60;;
12141;SDS011;6134;59.284;18.022;2022-10-16T12:18:34;3.55;;;2.42;;
12141;SDS011;6134;59.284;18.022;2022-10-16T12:21:09;4.68;;;2.50;;
12141;SDS011;6134;59.284;18.022;2022-10-16T12:23:46;4.85;;;3.33;;
12141;SDS011;6134;59.284;18.022;2022-10-16T12:26:23;5.25;;;2.25;;
12141;SDS011;6134;59.284;18.022;2022-10-16T12:28:52;3.80;;;2.70;;
12141;SDS011;6134;59.284;18.022;2022-10-16T12:31:21;4.45;;;2.22;;
12141;SDS011;6134;59.284;18.022;2022-10-16T12:33:55;4.20;;;2.50;;
12141;SDS011;6134;59.284;18.022;2022-10-16T12:36:28;7.47;;;2.40;;
12141;SDS011;6134;59.284;18.022;2022-10-16T12:38:57;3.13;;;2.45;;
12141;SDS011;6134;59.284;18.022;2022-10-16T12:41:27;3.17;;;2.20;;
12141;SDS011;6134;59.284;18.022;2022-10-16T12:43:56;3.58;;;2.58;;
12141;SDS011;6134;59.284;18.022;2022-10-16T12:46:35;4.38;;;2.60;;
12141;SDS011;6134;59.284;18.022;2022-10-16T12:49:22;3.15;;;2.20;;
12141;SDS011;6134;59.284;18.022;2022-10-16T12:51:52;4.45;;;2.42;;
12141;SDS011;6134;59.284;18.022;2022-10-16T12:54:21;3.35;;;2.22;;
12141;SDS011;6134;59.284;18.022;2022-10-16T12:56:56;2.67;;;2.10;;
12141;SDS011;6134;59.284;18.022;2022-10-16T12:59:33;4.80;;;2.28;;
12141;SDS011;6134;59.284;18.022;2022-10-16T13:07:46;3.88;;;2.08;;
12141;SDS011;6134;59.284;18.022;2022-10-16T13:10:19;3.63;;;2.00;;
12141;SDS011;6134;59.284;18.022;2022-10-16T13:12:54;3.22;;;2.47;;
12141;SDS011;6134;59.284;18.022;2022-10-16T13:15:34;2.35;;;2.00;;
12141;SDS011;6134;59.284;18.022;2022-10-16T13:18:10;6.05;;;2.40;;
12141;SDS011;6134;59.284;18.022;2022-10-16T13:20:46;4.75;;;2.55;;
12141;SDS011;6134;59.284;18.022;2022-10-16T13:23:22;3.80;;;2.40;;
12141;SDS011;6134;59.284;18.022;2022-10-16T13:25:57;2.70;;;2.00;;
12141;SDS011;6134;59.284;18.022;2022-10-16T13:28:29;4.47;;;2.33;;
12141;SDS011;6134;59.284;18.022;2022-10-16T13:30:59;5.78;;;2.25;;
12141;SDS011;6134;59.284;18.022;2022-10-16T13:33:30;3.85;;;2.30;;
12141;SDS011;6134;59.284;18.022;2022-10-16T13:35:59;2.03;;;1.75;;
12141;SDS011;6134;59.284;18.022;2022-10-16T13:38:30;4.25;;;2.00;;
12141;SDS011;6134;59.284;18.022;2022-10-16T13:41:00;3.40;;;1.92;;
12141;SDS011;6134;59.284;18.022;2022-10-16T13:43:29;3.85;;;2.13;;
12141;SDS011;6134;59.284;18.022;2022-10-16T13:46:00;3.22;;;1.63;;
12141;SDS011;6134;59.284;18.022;2022-10-16T13:48:29;3.80;;;2.22;;
12141;SDS011;6134;59.284;18.022;2022-10-16T13:51:03;3.03;;;2.17;;
12141;SDS011;6134;59.284;18.022;2022-10-16T13:53:33;4.00;;;1.90;;
12141;SDS011;6134;59.284;18.022;2022-10-16T13:56:03;3.67;;;1.60;;
12141;SDS011;6134;59.284;18.022;2022-10-16T13:58:32;3.83;;;1.50;;
12141;SDS011;6134;59.284;18.022;2022-10-16T14:01:01;4.53;;;1.48;;
12141;SDS011;6134;59.284;18.022;2022-10-16T14:03:32;2.55;;;1.98;;
12141;SDS011;6134;59.284;18.022;2022-10-16T14:06:02;4.03;;;1.98;;
12141;SDS011;6134;59.284;18.022;2022-10-16T14:08:31;3.10;;;1.83;;
12141;SDS011;6134;59.284;18.022;2022-10-16T14:11:02;3.22;;;1.58;;
12141;SDS011;6134;59.284;18.022;2022-10-16T14:13:31;3.58;;;1.70;;
12141;SDS011;6134;59.284;18.022;2022-10-16T14:16:02;5.15;;;1.67;;
12141;SDS011;6134;59.284;18.022;2022-10-16T14:18:33;5.63;;;1.90;;
12141;SDS011;6134;59.284;18.022;2022-10-16T14:21:02;3.58;;;2.65;;
12141;SDS011;6134;59.284;18.022;2022-10-16T14:23:31;3.17;;;1.73;;
12141;SDS011;6134;59.284;18.022;2022-10-16T14:26:16;3.00;;;1.80;;
12141;SDS011;6134;59.284;18.022;2022-10-16T14:28:45;3.90;;;2.00;;
12141;SDS011;6134;59.284;18.022;2022-10-16T14:31:25;3.65;;;2.05;;
12141;SDS011;6134;59.284;18.022;2022-10-16T14:33:54;3.40;;;1.80;;
12141;SDS011;6134;59.284;18.022;2022-10-16T14:36:22;8.75;;;2.42;;
12141;SDS011;6134;59.284;18.022;2022-10-16T14:38:56;4.80;;;2.10;;
12141;SDS011;6134;59.284;18.022;2022-10-16T14:41:28;3.65;;;1.90;;
12141;SDS011;6134;59.284;18.022;2022-10-16T14:43:58;3.90;;;2.40;;
12141;SDS011;6134;59.284;18.022;2022-10-16T14:46:30;5.15;;;1.90;;
12141;SDS011;6134;59.284;18.022;2022-10-16T14:49:01;3.78;;;1.92;;
12141;SDS011;6134;59.284;18.022;2022-10-16T14:51:30;5.05;;;2.30;;
12141;SDS011;6134;59.284;18.022;2022-10-16T14:53:59;4.10;;;2.53;;
12141;SDS011;6134;59.284;18.022;2022-10-16T14:56:31;3.72;;;1.73;;
12141;SDS011;6134;59.284;18.022;2022-10-16T14:59:02;4.32;;;2.10;;
12141;SDS011;6134;59.284;18.022;2022-10-16T15:01:31;4.32;;;2.00;;
12141;SDS011;6134;59.284;18.022;2022-10-16T15:03:59;5.18;;;2.50;;
12141;SDS011;6134;59.284;18.022;2022-10-16T15:06:28;5.40;;;2.53;;
12141;SDS011;6134;59.284;18.022;2022-10-16T15:08:57;3.90;;;2.38;;
12141;SDS011;6134;59.284;18.022;2022-10-16T15:11:25;4.10;;;2.03;;
12141;SDS011;6134;59.284;18.022;2022-10-16T15:13:55;3.05;;;2.33;;
12141;SDS011;6134;59.284;18.022;2022-10-16T15:16:24;5.45;;;2.50;;
12141;SDS011;6134;59.284;18.022;2022-10-16T15:18:53;5.03;;;1.88;;